createdAt,value
2019-01-29T00:01:55.773Z,69.20
2019-01-29T00:04:25.191Z,65.40
2019-01-29T00:06:54.511Z,63.07
2019-01-29T00:09:23.830Z,68.33
2019-01-29T00:11:53.255Z,65.23
2019-01-29T00:14:22.714Z,66.23
2019-01-29T00:16:52.054Z,60.87
2019-01-29T00:19:21.452Z,58.60
2019-01-29T00:21:50.772Z,60.43
2019-01-29T00:24:20.134Z,62.90
2019-01-29T00:26:49.435Z,61.83
2019-01-29T00:29:18.846Z,58.17
2019-01-29T00:31:48.245Z,62.87
2019-01-29T00:34:17.808Z,63.10
2019-01-29T00:36:47.119Z,63.83
2019-01-29T00:39:16.455Z,59.73
2019-01-29T00:41:45.884Z,62.10
2019-01-29T00:44:15.257Z,62.57
2019-01-29T00:46:44.767Z,65.43
2019-01-29T00:49:14.065Z,61.87
2019-01-29T00:51:43.439Z,65.60
2019-01-29T00:54:12.804Z,59.73
2019-01-29T00:56:42.244Z,65.00
2019-01-29T00:59:11.601Z,58.13
2019-01-29T01:01:40.906Z,61.73
2019-01-29T01:04:10.252Z,63.93
2019-01-29T01:06:39.732Z,59.37
2019-01-29T01:09:10.040Z,63.17
2019-01-29T01:11:39.431Z,64.83
2019-01-29T01:14:08.828Z,74.90
2019-01-29T01:16:38.161Z,67.57
2019-01-29T01:19:07.482Z,70.90
2019-01-29T01:21:36.912Z,65.00
2019-01-29T01:24:06.223Z,61.73
2019-01-29T01:26:35.620Z,60.23
2019-01-29T01:29:05.016Z,65.70
2019-01-29T01:31:34.400Z,75.47
2019-01-29T01:34:03.800Z,69.13
2019-01-29T01:36:33.184Z,60.40
2019-01-29T01:39:03.790Z,61.67
2019-01-29T01:41:33.068Z,58.00
2019-01-29T01:44:02.573Z,58.90
2019-01-29T01:46:31.951Z,53.67
2019-01-29T01:49:01.247Z,55.90
2019-01-29T01:51:30.668Z,53.03
2019-01-29T01:54:00.009Z,54.30
2019-01-29T01:56:29.434Z,50.87
2019-01-29T01:58:58.819Z,58.20
2019-01-29T02:01:28.354Z,56.03
2019-01-29T02:03:57.716Z,57.40
2019-01-29T02:06:27.008Z,56.23
2019-01-29T02:08:56.392Z,56.77
2019-01-29T02:11:25.778Z,57.40
2019-01-29T02:13:55.218Z,59.30
2019-01-29T02:16:24.516Z,64.70
2019-01-29T02:18:53.924Z,59.57
2019-01-29T02:21:23.812Z,60.07
2019-01-29T02:23:53.155Z,59.30
2019-01-29T02:26:22.538Z,61.43
2019-01-29T02:28:51.970Z,62.93
2019-01-29T02:31:21.477Z,66.10
2019-01-29T02:33:50.865Z,64.97
2019-01-29T02:36:20.306Z,66.27
2019-01-29T02:38:49.659Z,72.73
2019-01-29T02:41:18.965Z,69.70
2019-01-29T02:43:48.438Z,70.57
2019-01-29T02:46:17.742Z,66.33
2019-01-29T02:48:47.100Z,79.00
2019-01-29T02:51:17.945Z,71.73
2019-01-29T02:53:47.521Z,64.90
2019-01-29T02:56:16.907Z,63.53
2019-01-29T02:58:46.272Z,65.47
2019-01-29T03:01:15.615Z,61.50
2019-01-29T03:03:45.022Z,59.07
2019-01-29T03:06:14.503Z,66.27
2019-01-29T03:08:43.840Z,57.93
2019-01-29T03:11:13.194Z,61.37
2019-01-29T03:13:42.578Z,64.33
2019-01-29T03:16:11.896Z,59.40
2019-01-29T03:18:41.307Z,56.20
2019-01-29T03:21:10.680Z,50.97
2019-01-29T03:23:39.960Z,48.90
2019-01-29T03:26:09.346Z,47.77
2019-01-29T03:28:38.688Z,50.23
2019-01-29T03:31:07.987Z,48.43
2019-01-29T03:33:37.271Z,48.50
2019-01-29T03:36:06.649Z,50.47
2019-01-29T03:38:36.001Z,53.60
2019-01-29T03:41:05.421Z,58.30
2019-01-29T03:43:34.751Z,58.33
2019-01-29T03:46:04.114Z,55.67
2019-01-29T03:48:33.594Z,55.37
2019-01-29T03:51:02.964Z,53.20
2019-01-29T03:53:38.222Z,52.43
2019-01-29T03:56:03.463Z,52.17
2019-01-29T03:58:32.911Z,50.67
2019-01-29T04:01:02.214Z,49.13
2019-01-29T04:03:31.572Z,53.10
2019-01-29T04:06:01.052Z,54.47
2019-01-29T04:08:30.423Z,51.07
2019-01-29T04:10:59.719Z,48.13
2019-01-29T04:13:29.041Z,50.13
2019-01-29T04:15:58.435Z,40.50
2019-01-29T04:18:27.868Z,44.00
2019-01-29T04:20:57.221Z,44.17
2019-01-29T04:23:26.606Z,45.40
2019-01-29T04:25:55.835Z,49.20
2019-01-29T04:28:25.231Z,49.93
2019-01-29T04:30:54.503Z,41.40
2019-01-29T04:33:23.877Z,42.33
2019-01-29T04:35:53.218Z,38.97
2019-01-29T04:38:22.735Z,39.07
2019-01-29T04:40:52.049Z,41.03
2019-01-29T04:43:21.464Z,41.80
2019-01-29T04:45:50.831Z,41.27
2019-01-29T04:48:24.275Z,40.70
2019-01-29T04:50:53.598Z,40.90
2019-01-29T04:53:22.967Z,42.37
2019-01-29T04:55:52.308Z,42.77
2019-01-29T04:58:21.740Z,42.03
2019-01-29T05:00:51.216Z,41.67
2019-01-29T05:03:20.600Z,45.97
2019-01-29T05:05:49.989Z,40.97
2019-01-29T05:08:19.397Z,39.77
2019-01-29T05:10:48.779Z,39.17
2019-01-29T05:13:18.175Z,38.93
2019-01-29T05:15:47.555Z,39.77
2019-01-29T05:18:17.633Z,38.13
2019-01-29T05:20:46.947Z,40.23
2019-01-29T05:23:16.399Z,38.83
2019-01-29T05:25:46.026Z,39.33
2019-01-29T05:28:15.387Z,41.87
2019-01-29T05:30:44.776Z,40.00
2019-01-29T05:33:14.208Z,41.53
2019-01-29T05:35:43.603Z,40.20
2019-01-29T05:38:12.940Z,42.07
2019-01-29T05:40:42.387Z,43.67
2019-01-29T05:43:11.845Z,43.77
2019-01-29T05:45:41.191Z,46.43
2019-01-29T05:48:10.546Z,45.47
2019-01-29T05:50:39.926Z,43.37
2019-01-29T05:53:09.356Z,43.40
2019-01-29T05:55:38.773Z,44.30
2019-01-29T05:58:08.190Z,43.90
2019-01-29T06:00:39.939Z,44.03
2019-01-29T06:03:09.350Z,41.77
2019-01-29T06:05:38.679Z,41.17
2019-01-29T06:08:07.991Z,39.50
2019-01-29T06:10:37.359Z,40.90
2019-01-29T06:13:06.691Z,39.60
2019-01-29T06:15:35.996Z,39.63
2019-01-29T06:18:05.707Z,41.90
2019-01-29T06:20:35.071Z,42.97
2019-01-29T06:23:04.414Z,42.73
2019-01-29T06:25:33.780Z,41.27
2019-01-29T06:28:03.293Z,40.93
2019-01-29T06:30:32.622Z,42.80
2019-01-29T06:33:02.055Z,44.13
2019-01-29T06:35:31.428Z,61.47
2019-01-29T06:38:00.830Z,88.73
2019-01-29T06:40:30.486Z,81.93
2019-01-29T06:42:59.903Z,74.23
2019-01-29T06:45:29.255Z,67.17
2019-01-29T06:47:58.525Z,72.70
2019-01-29T06:50:28.108Z,61.80
2019-01-29T06:52:57.771Z,57.80
2019-01-29T06:55:27.215Z,77.80
2019-01-29T06:57:56.585Z,60.97
2019-01-29T07:00:30.579Z,45.37
2019-01-29T07:03:01.618Z,38.50
2019-01-29T07:05:50.113Z,34.23
2019-01-29T07:08:19.566Z,31.80
2019-01-29T07:10:49.023Z,31.07
2019-01-29T07:13:18.423Z,30.53
2019-01-29T07:16:24.758Z,30.97
2019-01-29T07:18:58.431Z,33.67
2019-01-29T07:21:46.854Z,32.50
2019-01-29T07:24:16.485Z,33.80
2019-01-29T07:26:45.817Z,29.00
2019-01-29T07:29:15.074Z,28.23
2019-01-29T07:31:44.367Z,30.00
2019-01-29T07:34:13.680Z,38.87
2019-01-29T07:36:42.879Z,41.47
2019-01-29T07:39:12.363Z,39.33
2019-01-29T07:41:41.682Z,41.77
2019-01-29T07:44:10.986Z,44.33
2019-01-29T07:46:40.273Z,45.00
2019-01-29T07:49:09.568Z,42.23
2019-01-29T07:51:38.840Z,38.70
2019-01-29T07:54:08.123Z,42.80
2019-01-29T07:56:37.490Z,39.00
2019-01-29T07:59:06.887Z,36.27
2019-01-29T08:01:36.391Z,37.13
2019-01-29T08:04:06.042Z,35.20
2019-01-29T08:06:35.303Z,36.03
2019-01-29T08:09:07.899Z,37.53
2019-01-29T08:11:37.178Z,43.70
2019-01-29T08:14:06.592Z,47.60
2019-01-29T08:16:35.997Z,55.50
2019-01-29T08:19:06.741Z,58.77
2019-01-29T08:21:36.114Z,52.33
2019-01-29T08:24:05.611Z,42.13
2019-01-29T08:26:35.584Z,34.77
2019-01-29T08:29:05.136Z,32.87
2019-01-29T08:31:34.501Z,29.47
2019-01-29T08:34:03.963Z,28.87
2019-01-29T09:54:55.224Z,44.20
2019-01-29T09:57:24.637Z,49.07
2019-01-29T09:59:54.064Z,34.87
2019-01-29T10:02:23.440Z,31.77
2019-01-29T10:04:53.013Z,23.67
2019-01-29T10:07:22.250Z,24.33
2019-01-29T10:09:51.721Z,18.83
2019-01-29T10:12:21.040Z,19.30
2019-01-29T10:14:50.409Z,16.10
2019-01-29T10:17:20.163Z,15.03
2019-01-29T10:19:49.513Z,13.70
2019-01-29T10:22:18.952Z,14.10
2019-01-29T10:24:48.751Z,13.30
2019-01-29T10:27:18.131Z,15.07
2019-01-29T10:29:47.589Z,14.83
2019-01-29T10:32:16.923Z,14.23
2019-01-29T10:34:46.478Z,15.40
2019-01-29T10:37:15.878Z,15.03
2019-01-29T10:39:45.288Z,15.80
2019-01-29T10:42:14.789Z,16.93
2019-01-29T10:44:44.406Z,16.47
2019-01-29T10:47:13.844Z,15.13
2019-01-29T10:49:43.504Z,17.03
2019-01-29T10:52:12.970Z,16.70
2019-01-29T10:54:42.520Z,13.03
2019-01-29T10:57:12.224Z,17.17
2019-01-29T10:59:41.690Z,17.83
2019-01-29T11:02:11.058Z,19.40
2019-01-29T11:04:41.062Z,20.07
2019-01-29T11:07:10.523Z,21.73
2019-01-29T11:09:40.027Z,21.73
2019-01-29T11:12:09.474Z,23.13
2019-01-29T11:14:38.903Z,22.57
2019-01-29T11:17:08.424Z,24.70
2019-01-29T11:19:37.968Z,23.20
2019-01-29T11:22:07.785Z,25.13
2019-01-29T11:24:37.368Z,24.67
2019-01-29T11:27:06.748Z,23.43
2019-01-29T11:29:36.187Z,26.43
2019-01-29T11:32:06.215Z,26.20
2019-01-29T11:34:35.627Z,25.17
2019-01-29T11:37:05.182Z,26.97
2019-01-29T11:39:34.565Z,24.80
2019-01-29T11:42:04.073Z,24.00
2019-01-29T11:44:33.722Z,23.67
2019-01-29T11:47:03.386Z,25.27
2019-01-29T11:49:32.759Z,24.63
2019-01-29T11:52:02.180Z,24.67
2019-01-29T11:54:31.482Z,25.50
2019-01-29T11:57:01.222Z,26.30
2019-01-29T11:59:30.768Z,23.63
2019-01-29T12:02:00.160Z,25.37
2019-01-29T12:04:29.836Z,19.93
2019-01-29T12:06:59.212Z,24.70
2019-01-29T12:09:28.891Z,27.43
2019-01-29T12:11:58.419Z,26.23
2019-01-29T12:14:28.089Z,22.47
2019-01-29T12:16:57.617Z,25.83
2019-01-29T12:19:29.133Z,25.60
2019-01-29T12:21:58.712Z,28.73
2019-01-29T12:24:28.153Z,28.07
2019-01-29T12:26:58.742Z,27.23
2019-01-29T12:29:28.159Z,28.40
2019-01-29T12:31:57.692Z,28.20
2019-01-29T12:34:27.179Z,29.57
2019-01-29T12:36:58.451Z,31.13
2019-01-29T12:39:28.138Z,32.17
2019-01-29T12:41:57.555Z,28.87
2019-01-29T12:44:26.894Z,35.13
2019-01-29T12:46:56.403Z,30.33
2019-01-29T12:49:26.043Z,32.20
2019-01-29T12:52:08.324Z,30.53
2019-01-29T12:54:37.745Z,34.70
2019-01-29T12:57:07.270Z,32.50
2019-01-29T12:59:36.616Z,34.20
2019-01-29T13:02:06.063Z,33.00
2019-01-29T13:04:35.449Z,36.70
2019-01-29T13:07:04.796Z,36.03
2019-01-29T13:09:34.123Z,33.03
2019-01-29T13:12:03.767Z,35.53
2019-01-29T13:14:33.107Z,37.17
2019-01-29T13:17:02.672Z,34.73
2019-01-29T13:19:32.203Z,33.97
2019-01-29T13:22:01.738Z,35.10
2019-01-29T13:24:31.085Z,33.17
2019-01-29T13:27:00.759Z,32.23
2019-01-29T13:29:30.086Z,32.17
2019-01-29T13:31:59.492Z,35.83
2019-01-29T13:34:29.063Z,32.70
2019-01-29T13:36:58.524Z,35.07
2019-01-29T13:39:27.899Z,36.40
2019-01-29T13:41:57.528Z,34.13
2019-01-29T13:44:26.931Z,36.40
2019-01-29T13:46:56.378Z,35.77
2019-01-29T13:49:26.014Z,31.03
2019-01-29T13:51:55.413Z,33.40
2019-01-29T13:54:24.813Z,30.67
2019-01-29T13:56:54.298Z,31.10
2019-01-29T13:59:23.639Z,32.37
2019-01-29T14:01:53.181Z,30.07
2019-01-29T14:04:22.689Z,31.77
2019-01-29T14:06:52.091Z,29.93
2019-01-29T14:09:21.929Z,30.13
2019-01-29T14:11:51.468Z,29.43
2019-01-29T14:14:20.974Z,26.07
2019-01-29T14:16:50.319Z,30.73
2019-01-29T14:19:19.757Z,29.80
2019-01-29T14:21:49.115Z,29.43
2019-01-29T14:24:18.522Z,30.97
2019-01-29T14:26:48.278Z,30.60
2019-01-29T14:29:17.808Z,30.10
2019-01-29T14:31:47.151Z,31.50
2019-01-29T14:34:16.663Z,31.47
2019-01-29T14:36:46.008Z,31.93
2019-01-29T14:39:45.389Z,29.30
2019-01-29T14:42:14.751Z,28.23
2019-01-29T14:44:48.739Z,29.53
2019-01-29T14:47:18.165Z,30.90
2019-01-29T14:49:47.665Z,30.83
2019-01-29T14:52:17.046Z,33.50
2019-01-29T14:54:46.479Z,33.17
2019-01-29T14:57:16.068Z,33.03
2019-01-29T14:59:45.371Z,32.87
2019-01-29T15:02:14.719Z,34.60
2019-01-29T15:04:48.950Z,32.83
2019-01-29T15:07:18.692Z,33.30
2019-01-29T15:09:48.235Z,37.93
2019-01-29T15:12:18.563Z,42.70
2019-01-29T15:14:47.919Z,46.20
2019-01-29T15:17:45.432Z,40.00
2019-01-29T15:20:14.805Z,40.17
2019-01-29T15:22:44.215Z,36.13
2019-01-29T15:25:13.631Z,34.17
2019-01-29T15:27:42.971Z,29.97
2019-01-29T15:30:21.849Z,34.53
2019-01-29T15:32:51.503Z,36.30
2019-01-29T15:35:20.770Z,37.13
2019-01-29T15:37:50.189Z,32.73
2019-01-29T15:40:21.380Z,32.13
2019-01-29T15:42:50.806Z,30.47
2019-01-29T15:45:20.409Z,34.50
2019-01-29T15:47:51.023Z,41.57
2019-01-29T15:50:21.170Z,41.67
2019-01-29T15:52:50.443Z,43.83
2019-01-29T15:55:20.527Z,43.03
2019-01-29T15:57:51.390Z,41.70
2019-01-29T16:00:23.999Z,39.00
2019-01-29T16:02:53.295Z,37.70
2019-01-29T16:05:24.758Z,40.10
2019-01-29T16:07:54.069Z,37.07
2019-01-29T16:10:26.471Z,39.53
2019-01-29T16:12:55.675Z,35.70
2019-01-29T16:15:27.049Z,36.23
2019-01-29T16:17:56.340Z,34.10
2019-01-29T16:20:25.626Z,33.40
2019-01-29T16:22:54.990Z,35.07
2019-01-29T16:25:25.749Z,32.93
2019-01-29T16:27:55.079Z,35.10
2019-01-29T16:30:28.412Z,36.77
2019-01-29T16:32:57.848Z,36.93
2019-01-29T16:35:29.683Z,39.00
2019-01-29T16:37:59.126Z,38.23
2019-01-29T16:40:29.883Z,36.33
2019-01-29T16:42:59.160Z,36.80
2019-01-29T16:45:30.682Z,34.47
2019-01-29T16:48:00.625Z,35.93
2019-01-29T16:50:30.034Z,37.67
2019-01-29T16:52:59.834Z,37.17
2019-01-29T16:55:31.502Z,37.33
2019-01-29T16:58:00.350Z,38.20
2019-01-29T17:00:30.912Z,37.67
2019-01-29T17:03:00.952Z,36.97
2019-01-29T17:05:33.077Z,34.67
2019-01-29T17:08:03.490Z,34.20
2019-01-29T17:10:33.395Z,34.03
2019-01-29T17:13:02.970Z,35.87
2019-01-29T17:15:32.389Z,35.27
2019-01-29T17:18:03.779Z,37.23
2019-01-29T17:20:37.041Z,37.30
2019-01-29T17:23:07.320Z,39.57
2019-01-29T17:25:37.291Z,41.10
2019-01-29T17:28:07.010Z,42.63
2019-01-29T17:30:45.351Z,43.07
2019-01-29T17:33:18.069Z,43.73
2019-01-29T17:35:48.119Z,48.13
2019-01-29T17:38:17.472Z,49.47
2019-01-29T17:40:47.600Z,50.60
2019-01-29T17:43:17.032Z,51.60
2019-01-29T17:45:47.945Z,39.73
2019-01-29T17:48:17.275Z,31.97
2019-01-29T17:50:46.772Z,30.33
2019-01-29T17:53:16.122Z,28.47
2019-01-29T17:55:46.679Z,24.10
2019-01-29T17:58:16.159Z,25.73
2019-01-29T18:00:52.017Z,20.13
2019-01-29T18:03:21.339Z,20.57
2019-01-29T18:05:50.668Z,21.03
2019-01-29T18:08:20.031Z,21.50
2019-01-29T18:10:49.344Z,21.93
2019-01-29T18:13:18.636Z,22.00
2019-01-29T18:15:47.968Z,22.40
2019-01-29T18:18:17.455Z,21.80
2019-01-29T18:20:46.821Z,20.30
2019-01-29T18:23:16.118Z,21.97
2019-01-29T18:25:45.397Z,22.67
2019-01-29T18:28:14.732Z,21.17
2019-01-29T18:30:44.164Z,21.67
2019-01-29T18:33:13.468Z,22.47
2019-01-29T18:35:42.819Z,23.93
2019-01-29T18:38:12.235Z,23.77
2019-01-29T18:40:44.704Z,23.50
2019-01-29T18:43:14.023Z,22.87
2019-01-29T18:45:43.536Z,21.07
2019-01-29T18:48:12.861Z,21.00
2019-01-29T18:50:42.048Z,23.03
2019-01-29T18:53:11.385Z,21.10
2019-01-29T18:55:40.627Z,21.90
2019-01-29T18:58:11.882Z,22.90
2019-01-29T19:00:41.265Z,21.97
2019-01-29T19:03:13.019Z,23.27
2019-01-29T19:05:42.395Z,24.00
2019-01-29T19:08:11.707Z,24.40
2019-01-29T19:10:42.157Z,26.03
2019-01-29T19:13:12.204Z,25.77
2019-01-29T19:15:43.186Z,27.47
2019-01-29T19:18:12.730Z,28.63
2019-01-29T19:20:42.182Z,26.23
2019-01-29T19:23:11.589Z,25.17
2019-01-29T19:25:41.046Z,26.80
2019-01-29T19:28:10.586Z,26.80
2019-01-29T19:30:40.016Z,25.90
2019-01-29T19:33:09.413Z,24.63
2019-01-29T19:35:38.923Z,23.60
2019-01-29T19:38:10.470Z,23.63
2019-01-29T19:40:40.555Z,23.60
2019-01-29T19:43:10.208Z,23.73
2019-01-29T19:45:40.078Z,23.53
2019-01-29T19:48:10.241Z,21.07
2019-01-29T19:50:39.638Z,21.33
2019-01-29T19:53:09.005Z,21.13
2019-01-29T19:55:38.457Z,21.03
2019-01-29T19:58:09.140Z,22.63
2019-01-29T20:00:41.536Z,22.10
2019-01-29T20:03:11.064Z,19.70
2019-01-29T20:05:40.560Z,17.50
2019-01-29T20:08:09.908Z,19.07
2019-01-29T20:10:39.335Z,17.50
2019-01-29T20:13:08.769Z,18.47
2019-01-29T20:15:38.153Z,18.03
2019-01-29T20:18:07.503Z,20.40
2019-01-29T20:20:39.197Z,20.37
2019-01-29T20:23:08.683Z,20.37
2019-01-29T20:25:38.322Z,18.30
2019-01-29T20:28:09.240Z,17.83
2019-01-29T20:30:39.745Z,18.77
2019-01-29T20:33:09.298Z,17.53
2019-01-29T20:35:38.744Z,18.10
2019-01-29T20:38:08.203Z,19.47
2019-01-29T20:40:37.829Z,20.20
2019-01-29T20:43:07.172Z,19.47
2019-01-29T20:45:36.731Z,18.60
2019-01-29T20:48:06.245Z,17.43
2019-01-29T20:50:36.534Z,17.07
2019-01-29T20:53:05.937Z,16.43
2019-01-29T20:55:35.390Z,16.60
2019-01-29T20:58:05.475Z,15.77
2019-01-29T21:00:37.193Z,14.77
2019-01-29T21:03:06.927Z,14.17
2019-01-29T21:05:36.652Z,13.93
2019-01-29T21:08:06.820Z,17.40
2019-01-29T21:10:36.583Z,16.53
2019-01-29T21:13:05.906Z,17.17
2019-01-29T21:15:38.481Z,18.10
2019-01-29T21:18:06.558Z,19.60
2019-01-29T21:20:36.148Z,18.73
2019-01-29T21:23:05.723Z,17.27
2019-01-29T21:25:35.130Z,17.33
2019-01-29T21:28:04.785Z,19.77
2019-01-29T21:30:45.139Z,20.20
2019-01-29T21:33:14.502Z,21.87
2019-01-29T21:35:43.878Z,18.37
2019-01-29T21:38:13.313Z,21.20
2019-01-29T21:40:42.737Z,26.43
2019-01-29T21:43:12.213Z,29.37
2019-01-29T21:45:41.866Z,32.13
2019-01-29T21:48:11.350Z,31.53
2019-01-29T21:50:40.787Z,32.63
2019-01-29T21:53:10.308Z,32.70
2019-01-29T21:55:39.897Z,33.63
2019-01-29T21:58:09.555Z,34.57
2019-01-29T22:00:41.480Z,31.03
2019-01-29T22:03:11.566Z,32.47
2019-01-29T22:05:41.286Z,32.07
2019-01-29T22:08:11.769Z,32.70
2019-01-29T22:10:41.816Z,29.03
2019-01-29T22:13:12.697Z,29.37
2019-01-29T22:15:42.569Z,27.50
2019-01-29T22:18:14.032Z,29.27
2019-01-29T22:20:43.450Z,30.60
2019-01-29T22:23:13.059Z,30.63
2019-01-29T22:25:42.791Z,29.97
2019-01-29T22:28:12.800Z,31.40
2019-01-29T22:30:43.766Z,29.50
2019-01-29T22:33:13.255Z,31.33
2019-01-29T22:35:42.838Z,32.03
2019-01-29T22:38:12.458Z,33.70
2019-01-29T22:40:41.907Z,35.80
2019-01-29T22:43:11.255Z,36.83
2019-01-29T22:45:40.600Z,37.43
2019-01-29T22:48:10.361Z,40.27
2019-01-29T22:50:41.495Z,43.17
2019-01-29T22:53:29.675Z,46.73
2019-01-29T22:55:59.465Z,51.57
2019-01-29T22:58:29.011Z,44.93
2019-01-29T23:01:28.556Z,42.50
2019-01-29T23:04:27.244Z,41.43
2019-01-29T23:07:08.599Z,42.90
2019-01-29T23:09:37.943Z,57.27
2019-01-29T23:12:07.612Z,64.00
2019-01-29T23:14:37.043Z,66.67
2019-01-29T23:17:06.663Z,66.57
2019-01-29T23:19:36.249Z,66.40
2019-01-29T23:22:05.841Z,66.30
2019-01-29T23:24:35.268Z,69.93
2019-01-29T23:27:04.695Z,66.50
2019-01-29T23:29:42.995Z,64.63
2019-01-29T23:32:05.404Z,59.83
2019-01-29T23:34:34.765Z,57.80
2019-01-29T23:37:04.353Z,59.77
2019-01-29T23:39:33.829Z,57.93
2019-01-29T23:42:03.212Z,59.13
2019-01-29T23:44:32.563Z,61.60
2019-01-29T23:47:02.002Z,62.27
2019-01-29T23:49:31.494Z,62.20
2019-01-29T23:52:00.921Z,66.23
2019-01-29T23:54:30.334Z,64.53
2019-01-29T23:57:00.047Z,59.27
2019-01-29T23:59:30.114Z,60.87
